»·PEaware :: N4306H KAJO-KVCV

N4306H :: KAJO-KVCV

FLIGHT INFORMATION

Flight Status: Arrived
Operator: Privately registered:
United States
More flights under this callsign
Pilot: Lauro R. (32390)
Aircraft: MOONEY M-20 201 202 205 220 ATS MSE
(M20P)
More flights by this aircraft type
Origin: KAJO Corona Mun
United States
Destination: KVCV Socal Logistics
United States
More flights between these airports :: More routes between these airports
Route: +PDZ V442 APLES
File this flight plan on PilotEdge
Remarks:
Altitude:
(Current/Filed)
11,000ft
Speed:
(Current/Filed)
160kts
Departed: 21-Nov-20 10:36 PM
Arrived: 21-Nov-20 11:20 PM
Distance/Time
Traveled:
43nm/0:44
Distance/Time
To Go:
Arrived

Flight Plot

Page will automatically refresh every two minutes.


Map Options




Map Legend


Flown Route
Filed Route
Departure Airport
Arrival Airport
Navaid (VOR, NDB)
Fix

Horizontal Profiles

Position Reports

Time Latitude Longitude Heading Altitude Ground
Speed
21-Nov-20 22:20 33.897086 -117.607165 1 536ft 0kts
21-Nov-20 22:21 33.897086 -117.607165 1 536ft 0kts
21-Nov-20 22:22 33.897086 -117.607165 1 536ft 0kts
21-Nov-20 22:23 33.897086 -117.607165 1 536ft 0kts
21-Nov-20 22:24 33.897086 -117.607165 1 536ft 0kts
21-Nov-20 22:25 33.897086 -117.607165 1 536ft 0kts
21-Nov-20 22:26 33.897086 -117.607165 1 536ft 0kts
21-Nov-20 22:27 33.897086 -117.607165 1 536ft 0kts
21-Nov-20 22:28 33.897086 -117.607165 1 536ft 0kts
21-Nov-20 22:29 33.897086 -117.607165 1 536ft 0kts
21-Nov-20 22:32 33.897086 -117.607165 1 536ft 0kts
21-Nov-20 22:33 33.897564 -117.607197 65 536ft 0kts
21-Nov-20 22:34 33.897411 -117.607455 358 536ft 0kts
21-Nov-20 22:35 33.901702 -117.585462 66 916ft 102kts
21-Nov-20 22:36 33.911869 -117.550533 71 1741ft 117kts
21-Nov-20 22:37 33.927183 -117.515585 47 2549ft 123kts
21-Nov-20 22:38 33.952944 -117.488087 40 3350ft 124kts
21-Nov-20 22:39 33.975047 -117.499392 251 4136ft 122kts
21-Nov-20 22:40 33.945278 -117.512109 196 4936ft 119kts
21-Nov-20 22:41 33.917977 -117.532376 227 5735ft 115kts
21-Nov-20 22:42 33.935506 -117.547468 41 5894ft 131kts
21-Nov-20 22:43 33.964500 -117.517484 40 5882ft 141kts
21-Nov-20 22:44 33.949425 -117.495807 221 5891ft 138kts
21-Nov-20 22:45 33.920506 -117.526828 221 5880ft 139kts
21-Nov-20 22:46 33.931892 -117.550246 38 6313ft 126kts
21-Nov-20 22:47 33.957408 -117.523787 44 7103ft 116kts
21-Nov-20 22:48 33.943260 -117.509206 219 7925ft 102kts
21-Nov-20 22:49 33.921748 -117.526398 169 8684ft 90kts
21-Nov-20 22:50 33.915719 -117.495429 89 8893ft 131kts
21-Nov-20 22:51 33.913420 -117.445941 109 8880ft 159kts
21-Nov-20 22:52 33.940849 -117.415342 10 8883ft 168kts
21-Nov-20 22:53 33.986945 -117.404609 15 8880ft 172kts
21-Nov-20 22:54 34.035583 -117.403935 355 8650ft 184kts
21-Nov-20 22:55 34.083871 -117.407639 356 8877ft 169kts
21-Nov-20 22:56 34.130627 -117.401265 22 8882ft 172kts
21-Nov-20 22:57 34.174948 -117.375523 26 8882ft 185kts
21-Nov-20 22:58 34.222325 -117.346982 27 8881ft 193kts
21-Nov-20 22:59 34.270917 -117.317646 27 8844ft 198kts
21-Nov-20 23:00 34.320237 -117.287849 26 8798ft 198kts
21-Nov-20 23:01 34.369266 -117.258184 27 8792ft 197kts
21-Nov-20 23:02 34.418246 -117.228515 27 8788ft 197kts
21-Nov-20 23:03 34.467150 -117.198835 27 8788ft 197kts
21-Nov-20 23:04 34.515982 -117.169089 26 8788ft 196kts
21-Nov-20 23:05 34.566623 -117.145025 8 8651ft 202kts
21-Nov-20 23:06 34.624221 -117.145659 351 7996ft 213kts
21-Nov-20 23:07 34.679101 -117.165496 335 7231ft 191kts
21-Nov-20 23:08 34.721676 -117.197520 321 6307ft 173kts
21-Nov-20 23:09 34.754775 -117.238464 308 5396ft 168kts
21-Nov-20 23:10 34.777815 -117.284039 295 4983ft 140kts
21-Nov-20 23:11 34.790513 -117.325833 285 5001ft 149kts
21-Nov-20 23:12 34.792468 -117.377672 227 4984ft 161kts
21-Nov-20 23:13 34.749067 -117.377561 180 4654ft 159kts
21-Nov-20 23:14 34.707338 -117.380170 184 3980ft 136kts
21-Nov-20 23:15 34.675464 -117.383742 191 3482ft 81kts
21-Nov-20 23:16 34.655253 -117.386776 184 3409ft 75kts
21-Nov-20 23:17 34.636272 -117.386860 179 3199ft 68kts
21-Nov-20 23:18 34.618458 -117.386762 178 2834ft 59kts
21-Nov-20 23:19 34.610640 -117.385465 95 2826ft 18kts
21-Nov-20 23:20 34.603781 -117.384124 179 2836ft 26kts
21-Nov-20 23:21 34.598343 -117.384065 179 2847ft 15kts
21-Nov-20 23:22 34.591691 -117.380140 134 2863ft 53kts
21-Nov-20 23:23 34.588247 -117.376963 135 2870ft 0kts

Navigation Log

Ident Type
Flight plan parsing failed, navigation log unavailable